Time;durP1;ratioP1;P1;durP2;ratioP2;P2;SDS_P1;SDS_P2;PMS_P1;PMS_P2;Temp;Humidity;BMP_temperature;BMP_pressure;BME280_temperature;BME280_humidity;BME280_pressure;Samples;Min_cycle;Max_cycle;Signal;HPM_P1;HPM_P2
2024/01/07 00:00:43;;;;;;;9.65;4.30;;;;;;;1.84;72.00;102096.91;7388854;19;20035;-62
2024/01/07 00:03:11;;;;;;;9.40;4.50;;;;;;;1.97;71.67;102094.94;7390673;19;20082;-62
2024/01/07 00:05:39;;;;;;;8.68;3.50;;;;;;;1.84;71.99;102100.38;7388342;19;20024;-62
2024/01/07 00:08:07;;;;;;;7.18;3.58;;;;;;;1.78;72.35;102100.44;7390613;19;20014;-61
2024/01/07 00:10:34;;;;;;;7.95;3.55;;;;;;;1.81;72.57;102112.59;7389924;19;20141;-62
2024/01/07 00:13:02;;;;;;;9.18;3.50;;;;;;;1.82;72.62;102115.19;7388642;19;20047;-62
2024/01/07 00:15:31;;;;;;;8.23;3.40;;;;;;;1.87;71.85;102116.00;7387824;19;20510;-61
2024/01/07 00:17:59;;;;;;;7.15;3.30;;;;;;;1.72;72.00;102113.63;7389897;19;20043;-61
2024/01/07 00:20:28;;;;;;;8.70;3.60;;;;;;;1.83;72.02;102118.66;7389970;19;20011;-61
2024/01/07 00:22:56;;;;;;;6.72;3.53;;;;;;;1.77;72.45;102124.00;7388549;19;20376;-61
2024/01/07 00:25:24;;;;;;;9.40;4.18;;;;;;;1.73;72.78;102117.94;7387715;19;20025;-60
2024/01/07 00:27:55;;;;;;;8.05;3.50;;;;;;;1.84;73.00;102128.25;7388107;19;20090;-61
2024/01/07 00:30:23;;;;;;;6.93;3.28;;;;;;;1.79;72.88;102135.25;7389516;19;20047;-66
2024/01/07 00:32:51;;;;;;;8.30;3.30;;;;;;;1.59;72.18;102131.19;7387942;19;20543;-62
2024/01/07 00:35:19;;;;;;;7.35;3.60;;;;;;;1.60;71.52;102142.50;7387600;19;20373;-62
2024/01/07 00:37:47;;;;;;;6.68;3.35;;;;;;;1.53;71.79;102146.97;7389081;19;20078;-64
2024/01/07 00:40:15;;;;;;;9.40;4.47;;;;;;;1.38;72.02;102140.19;7389402;19;20032;-64
2024/01/07 00:42:44;;;;;;;9.70;4.07;;;;;;;1.55;72.31;102146.94;7397124;19;20026;-63
2024/01/07 00:45:11;;;;;;;8.82;3.70;;;;;;;1.55;72.07;102149.53;7393194;19;20031;-63
2024/01/07 00:47:40;;;;;;;7.07;3.47;;;;;;;1.49;72.18;102155.72;7393504;19;20054;-63
2024/01/07 00:50:08;;;;;;;8.15;3.50;;;;;;;1.51;72.22;102137.41;7396606;19;20014;-64
2024/01/07 00:52:37;;;;;;;8.10;3.55;;;;;;;1.50;72.56;102151.34;7397066;19;20396;-64
2024/01/07 00:55:06;;;;;;;7.10;3.58;;;;;;;1.66;72.56;102155.47;7393034;19;20031;-64
2024/01/07 00:57:34;;;;;;;8.18;3.60;;;;;;;1.46;72.67;102163.59;7396215;19;20468;-63
2024/01/07 01:00:06;;;;;;;8.00;4.03;;;;;;;1.45;73.42;102164.44;7395033;19;20043;-64
2024/01/07 01:02:35;;;;;;;7.55;3.72;;;;;;;1.50;73.59;102172.25;7397303;19;20374;-64
2024/01/07 01:05:04;;;;;;;8.23;3.97;;;;;;;1.52;72.78;102170.44;7396836;19;20010;-64
2024/01/07 01:07:32;;;;;;;7.93;3.60;;;;;;;1.42;73.60;102161.91;7395048;19;20349;-64
2024/01/07 01:10:00;;;;;;;7.40;3.80;;;;;;;1.63;73.37;102172.03;7397955;19;20341;-64
2024/01/07 01:12:29;;;;;;;7.95;3.65;;;;;;;1.63;73.25;102173.78;7400414;19;20014;-64
2024/01/07 01:14:57;;;;;;;7.45;3.47;;;;;;;1.79;73.39;102180.50;7397132;19;20032;-64
2024/01/07 01:17:25;;;;;;;7.95;3.92;;;;;;;1.39;73.81;102165.41;7397244;19;20043;-64
2024/01/07 01:19:53;;;;;;;7.25;3.65;;;;;;;1.40;74.98;102169.72;7399847;19;20397;-64
2024/01/07 01:22:21;;;;;;;7.22;3.65;;;;;;;1.61;74.66;102178.19;7396298;19;20021;-65
2024/01/07 01:24:51;;;;;;;9.18;4.03;;;;;;;1.63;74.14;102179.88;7393335;19;20022;-65
2024/01/07 01:27:19;;;;;;;9.00;4.20;;;;;;;1.61;74.04;102184.25;7393376;19;20023;-64
2024/01/07 01:29:47;;;;;;;9.07;3.67;;;;;;;1.57;73.92;102184.31;7395593;19;20018;-64
2024/01/07 01:32:16;;;;;;;9.40;4.07;;;;;;;1.64;73.85;102188.56;7395329;19;20018;-64
2024/01/07 01:34:43;;;;;;;7.28;3.53;;;;;;;1.62;73.88;102196.41;7393807;19;20019;-64
2024/01/07 01:37:11;;;;;;;7.60;3.58;;;;;;;1.52;74.06;102192.19;7395396;19;20019;-64
2024/01/07 01:39:43;;;;;;;8.80;3.90;;;;;;;1.66;73.62;102199.84;7393524;19;20023;-64
2024/01/07 01:42:10;;;;;;;7.65;3.55;;;;;;;1.63;73.38;102198.13;7393808;19;20027;-64
2024/01/07 01:44:38;;;;;;;9.35;4.13;;;;;;;1.42;74.14;102195.81;7393543;19;20018;-64
2024/01/07 01:47:07;;;;;;;9.80;4.15;;;;;;;1.45;74.08;102204.47;7391874;19;20019;-64
2024/01/07 01:49:36;;;;;;;7.97;4.15;;;;;;;1.31;75.15;102209.00;7395041;19;20023;-64
2024/01/07 01:52:05;;;;;;;10.60;3.88;;;;;;;1.20;75.62;102216.94;7393705;19;20479;-64
2024/01/07 01:54:33;;;;;;;8.93;4.35;;;;;;;0.95;76.40;102212.84;7392978;19;20041;-64
2024/01/07 01:57:01;;;;;;;8.23;3.70;;;;;;;1.18;76.63;102229.16;7392961;19;20026;-64
2024/01/07 01:59:29;;;;;;;8.65;3.97;;;;;;;1.36;76.34;102233.28;7392656;19;20042;-59
2024/01/07 02:01:57;;;;;;;8.65;4.13;;;;;;;1.58;75.20;102223.44;7394453;19;20014;-61
2024/01/07 02:04:26;;;;;;;8.38;3.50;;;;;;;1.57;73.54;102226.09;7393034;19;20023;-62
2024/01/07 02:06:54;;;;;;;7.97;3.45;;;;;;;1.52;72.12;102228.75;7392989;19;20482;-62
2024/01/07 02:09:22;;;;;;;6.97;3.13;;;;;;;1.49;72.40;102233.13;7394131;19;20381;-63
2024/01/07 02:12:04;;;;;;;7.00;2.97;;;;;;;1.62;71.47;102239.94;7393006;19;20054;-63
2024/01/07 02:14:32;;;;;;;7.15;3.13;;;;;;;1.59;71.44;102224.31;7392502;19;20381;-63
2024/01/07 02:17:00;;;;;;;6.45;3.00;;;;;;;1.74;70.67;102245.00;7393408;19;20014;-64
2024/01/07 02:19:29;;;;;;;6.65;3.10;;;;;;;1.77;70.71;102244.09;7393516;19;20476;-62
2024/01/07 02:21:57;;;;;;;5.47;2.53;;;;;;;1.74;69.78;102247.63;7394119;19;20343;-62
2024/01/07 02:24:25;;;;;;;7.40;2.80;;;;;;;1.50;69.88;102256.63;7390679;19;20392;-61
2024/01/07 02:26:53;;;;;;;5.85;2.40;;;;;;;1.26;69.52;102247.34;7392430;19;20451;-63
2024/01/07 02:29:21;;;;;;;7.68;2.90;;;;;;;1.34;69.93;102253.34;7393141;19;20018;-64
2024/01/07 02:31:49;;;;;;;6.28;2.72;;;;;;;1.59;68.63;102256.50;7393425;19;20014;-64
2024/01/07 02:34:17;;;;;;;4.78;2.17;;;;;;;1.46;68.81;102260.16;7392313;19;20129;-61
2024/01/07 02:36:45;;;;;;;5.20;2.28;;;;;;;1.54;67.60;102253.09;7391300;19;20018;-61
2024/01/07 02:39:13;;;;;;;5.45;2.28;;;;;;;1.50;67.80;102256.63;7393101;19;20449;-62
2024/01/07 02:41:41;;;;;;;4.55;2.10;;;;;;;1.55;67.61;102254.81;7391603;19;20020;-61
2024/01/07 02:44:09;;;;;;;5.43;2.25;;;;;;;1.61;67.08;102265.19;7390328;19;20022;-64
2024/01/07 02:46:40;;;;;;;4.18;2.13;;;;;;;1.58;67.61;102275.66;7390608;19;20018;-64
2024/01/07 02:49:08;;;;;;;6.53;2.53;;;;;;;1.58;67.02;102267.84;7391180;19;20022;-64
2024/01/07 02:51:36;;;;;;;4.95;2.20;;;;;;;1.52;67.15;102280.09;7392717;19;20022;-63
2024/01/07 02:54:04;;;;;;;3.90;1.90;;;;;;;1.43;67.21;102281.91;7391595;19;20029;-63
2024/01/07 02:56:32;;;;;;;5.65;2.20;;;;;;;1.49;67.15;102286.22;7392013;19;20030;-63
2024/01/07 02:59:00;;;;;;;4.43;2.00;;;;;;;1.46;66.90;102296.69;7392166;19;20011;-61
2024/01/07 03:01:29;;;;;;;6.18;1.95;;;;;;;1.54;65.91;102286.16;7392129;19;20022;-61
2024/01/07 03:03:57;;;;;;;6.07;2.20;;;;;;;1.58;66.21;102288.72;7387723;19;20022;-61
2024/01/07 03:06:28;;;;;;;5.35;1.92;;;;;;;1.46;66.02;102291.47;7390429;19;20022;-62
2024/01/07 03:08:56;;;;;;;5.72;2.28;;;;;;;1.36;66.24;102300.28;7392155;19;20026;-62
2024/01/07 03:11:24;;;;;;;5.53;2.22;;;;;;;1.37;65.57;102307.22;7391885;19;20097;-62
2024/01/07 03:13:52;;;;;;;6.43;2.40;;;;;;;1.30;65.92;102301.22;7390969;19;20035;-62
2024/01/07 03:16:24;;;;;;;5.05;1.90;;;;;;;1.34;65.63;102299.44;7390791;19;20011;-64
2024/01/07 03:19:43;;;;;;;4.15;1.80;;;;;;;1.64;64.43;102308.66;7424601;19;20329;-64
2024/01/07 03:22:11;;;;;;;5.20;2.30;;;;;;;1.59;64.94;102298.28;7427167;19;20097;-62
2024/01/07 03:24:41;;;;;;;6.85;2.47;;;;;;;1.61;65.51;102303.50;7422810;19;20035;-63
2024/01/07 03:28:34;;;;;;;4.97;2.00;;;;;;;1.52;64.47;102304.44;7426535;19;20281;-66
2024/01/07 03:31:09;;;;;;;5.32;2.35;;;;;;;1.60;64.31;102315.69;7427105;19;20086;-66
2024/01/07 03:33:38;;;;;;;5.28;1.90;;;;;;;1.29;64.98;102311.66;7426425;19;20130;-67
2024/01/07 03:36:08;;;;;;;3.83;1.58;;;;;;;1.57;65.18;102315.72;7426458;19;20018;-66
2024/01/07 03:38:37;;;;;;;7.82;2.03;;;;;;;1.51;64.71;102321.00;7427310;19;20039;-63
2024/01/07 03:41:05;;;;;;;4.25;1.80;;;;;;;1.53;64.71;102324.47;7427737;19;20025;-63
2024/01/07 03:43:33;;;;;;;5.30;1.88;;;;;;;1.27;65.29;102323.88;7426471;19;20014;-64
2024/01/07 03:46:01;;;;;;;4.88;1.70;;;;;;;1.44;64.88;102322.78;7427074;19;20022;-65
2024/01/07 03:48:29;;;;;;;5.82;1.80;;;;;;;1.35;64.05;102324.66;7424364;19;20081;-63
2024/01/07 03:50:58;;;;;;;6.65;1.80;;;;;;;1.36;64.98;102334.19;7426985;19;20035;-63
2024/01/07 03:53:25;;;;;;;3.40;1.45;;;;;;;1.34;65.14;102326.41;7426342;19;20006;-64
2024/01/07 03:55:56;;;;;;;4.53;1.60;;;;;;;1.53;65.19;102337.50;7425173;19;20022;-65
2024/01/07 03:58:24;;;;;;;5.10;1.77;;;;;;;1.52;64.85;102338.38;7426562;19;20446;-63
2024/01/07 04:00:52;;;;;;;4.18;1.73;;;;;;;1.39;64.33;102337.66;7426739;19;20351;-63
2024/01/07 04:03:20;;;;;;;4.72;1.48;;;;;;;1.49;64.23;102348.88;7426139;19;20021;-64
2024/01/07 04:05:48;;;;;;;3.03;1.40;;;;;;;1.43;64.72;102352.41;7425658;19;20014;-62
2024/01/07 04:08:16;;;;;;;4.38;1.52;;;;;;;1.44;64.12;102348.03;7422668;19;20351;-64
2024/01/07 04:10:44;;;;;;;3.63;1.27;;;;;;;1.33;63.91;102350.75;7426121;19;20403;-64
2024/01/07 04:13:12;;;;;;;3.20;1.30;;;;;;;1.41;64.69;102359.38;7425577;19;20031;-64
2024/01/07 04:15:40;;;;;;;3.85;1.40;;;;;;;1.49;64.80;102363.63;7424239;19;20077;-64
2024/01/07 04:18:08;;;;;;;2.47;1.40;;;;;;;1.52;64.32;102366.22;7424107;19;20010;-64
2024/01/07 04:20:36;;;;;;;4.68;1.60;;;;;;;1.56;64.55;102367.94;7425763;19;20015;-63
2024/01/07 04:23:04;;;;;;;2.97;1.40;;;;;;;1.57;64.16;102370.53;7425772;19;20022;-64
2024/01/07 04:25:32;;;;;;;5.45;1.48;;;;;;;1.51;64.41;102377.56;7422830;19;20026;-65
2024/01/07 04:28:00;;;;;;;3.17;1.40;;;;;;;1.52;64.57;102382.75;7421683;19;20040;-65
2024/01/07 04:30:29;;;;;;;2.70;1.40;;;;;;;1.39;64.83;102374.19;7425180;19;20014;-64
2024/01/07 04:32:57;;;;;;;4.97;1.50;;;;;;;1.34;64.89;102385.56;7426095;19;20018;-64
2024/01/07 04:35:25;;;;;;;2.10;1.20;;;;;;;1.16;65.22;102384.81;7422588;19;20022;-64
2024/01/07 04:37:53;;;;;;;5.13;1.48;;;;;;;1.15;65.45;102382.25;7420630;19;20126;-64
2024/01/07 04:40:21;;;;;;;4.20;1.30;;;;;;;1.30;65.49;102400.38;7396584;19;20050;-64
2024/01/07 04:42:49;;;;;;;3.70;1.50;;;;;;;1.35;65.12;102413.38;7396254;19;20043;-64
2024/01/07 04:45:17;;;;;;;2.15;1.30;;;;;;;1.35;65.16;102405.56;7392808;19;20025;-65
2024/01/07 04:47:45;;;;;;;2.42;1.13;;;;;;;1.29;65.09;102419.50;7396127;19;20342;-64
2024/01/07 04:50:14;;;;;;;3.67;1.70;;;;;;;1.23;65.24;102419.56;7394546;19;20031;-63
2024/01/07 04:52:42;;;;;;;4.97;1.27;;;;;;;1.24;64.75;102425.66;7395976;19;20046;-63
2024/01/07 04:55:10;;;;;;;5.25;1.70;;;;;;;1.05;65.51;102422.31;7394547;19;20034;-63
2024/01/07 04:57:38;;;;;;;3.58;1.40;;;;;;;0.96;65.78;102431.06;7397088;19;20010;-63
2024/01/07 05:00:07;;;;;;;5.18;1.40;;;;;;;0.86;65.83;102427.66;7397465;19;20138;-63
2024/01/07 05:02:34;;;;;;;3.85;1.40;;;;;;;0.88;65.88;102438.09;7396761;19;20038;-63
2024/01/07 05:05:03;;;;;;;2.92;1.20;;;;;;;0.90;66.31;102431.09;7394218;19;20074;-64
2024/01/07 05:07:31;;;;;;;4.53;1.67;;;;;;;1.01;65.83;102439.72;7394895;19;20018;-64
2024/01/07 05:09:58;;;;;;;5.85;1.63;;;;;;;1.11;65.54;102436.19;7396079;19;20431;-65
2024/01/07 05:12:26;;;;;;;3.42;1.48;;;;;;;1.07;65.18;102452.72;7397388;19;20043;-64
2024/01/07 05:14:54;;;;;;;8.63;2.00;;;;;;;0.99;65.42;102449.28;7391014;19;20043;-64
2024/01/07 05:17:22;;;;;;;3.45;1.30;;;;;;;0.88;66.14;102459.81;7395916;19;20120;-64
2024/01/07 05:19:50;;;;;;;4.45;1.40;;;;;;;0.95;65.25;102448.47;7397886;19;20022;-64
2024/01/07 05:22:18;;;;;;;3.55;1.20;;;;;;;0.94;65.33;102458.88;7396528;19;20025;-64
2024/01/07 05:24:46;;;;;;;2.90;1.33;;;;;;;0.97;65.52;102469.31;7393742;19;20050;-64
2024/01/07 05:27:17;;;;;;;4.95;1.45;;;;;;;0.97;65.32;102480.59;7394078;19;20499;-64
2024/01/07 05:29:47;;;;;;;4.25;1.50;;;;;;;1.08;65.38;102487.50;7394125;19;20011;-64
2024/01/07 05:32:15;;;;;;;5.10;1.38;;;;;;;0.94;65.64;102482.38;7395127;19;20025;-66
2024/01/07 05:34:43;;;;;;;4.60;1.35;;;;;;;1.05;65.37;102490.13;7393016;19;20019;-66
2024/01/07 05:37:11;;;;;;;5.13;1.10;;;;;;;0.96;65.29;102489.31;7395087;19;20011;-65
2024/01/07 05:39:39;;;;;;;3.22;1.10;;;;;;;1.05;65.20;102504.03;7394935;19;20021;-65
2024/01/07 05:42:07;;;;;;;3.60;1.25;;;;;;;1.04;65.26;102497.09;7394388;19;20022;-65
2024/01/07 05:44:35;;;;;;;3.92;1.10;;;;;;;1.03;64.79;102491.88;7392751;19;20018;-65
2024/01/07 05:47:04;;;;;;;3.03;1.20;;;;;;;1.01;65.56;102502.31;7394543;19;20022;-65
2024/01/07 05:49:32;;;;;;;3.45;1.30;;;;;;;0.88;65.54;102506.75;7393417;19;20486;-65
2024/01/07 05:52:01;;;;;;;2.83;1.20;;;;;;;1.00;65.44;102505.81;7393691;19;20087;-65
2024/01/07 05:54:29;;;;;;;3.17;1.35;;;;;;;1.18;65.05;102516.16;7392535;19;20028;-65
2024/01/07 05:56:59;;;;;;;2.63;1.20;;;;;;;1.35;64.47;102517.78;7395287;19;20018;-66
2024/01/07 05:59:27;;;;;;;2.67;1.30;;;;;;;1.31;64.43;102516.06;7394309;19;20018;-65
2024/01/07 06:01:59;;;;;;;3.75;1.50;;;;;;;1.24;64.60;102530.88;7393925;19;20007;-65
2024/01/07 06:04:27;;;;;;;2.83;1.30;;;;;;;1.30;64.72;102540.41;7391998;19;20022;-65
2024/01/07 06:06:55;;;;;;;3.58;1.35;;;;;;;1.33;64.44;102538.63;7394982;19;20034;-65
2024/01/07 06:09:24;;;;;;;2.47;1.05;;;;;;;1.16;64.71;102527.47;7394417;19;20029;-65
2024/01/07 06:11:52;;;;;;;2.97;1.38;;;;;;;1.27;64.98;102545.66;7394781;19;20023;-64
2024/01/07 06:14:21;;;;;;;4.80;1.40;;;;;;;1.51;64.57;102548.09;7393953;19;20018;-64
2024/01/07 06:16:49;;;;;;;6.70;1.20;;;;;;;1.51;64.13;102548.09;7394828;19;20017;-64
2024/01/07 06:19:17;;;;;;;3.60;1.33;;;;;;;1.47;64.36;102554.22;7397052;19;20018;-64
2024/01/07 06:21:45;;;;;;;3.38;1.15;;;;;;;1.34;64.80;102544.75;7395737;19;20131;-64
2024/01/07 06:24:14;;;;;;;4.75;1.20;;;;;;;1.52;64.73;102559.41;7395641;19;20022;-64
2024/01/07 06:26:43;;;;;;;2.38;1.20;;;;;;;1.48;64.70;102561.16;7396386;19;20022;-65
2024/01/07 06:29:10;;;;;;;4.70;1.33;;;;;;;1.36;64.98;102569.09;7396830;19;20027;-64
2024/01/07 06:31:45;;;;;;;3.67;1.65;;;;;;;1.44;65.38;102577.72;7392155;19;20832;-65
2024/01/07 06:34:13;;;;;;;3.97;1.60;;;;;;;1.63;64.74;102581.09;7391641;19;20033;-65
2024/01/07 06:36:42;;;;;;;3.53;1.20;;;;;;;1.61;64.58;102577.63;7392136;19;20018;-65
2024/01/07 06:39:10;;;;;;;3.03;1.27;;;;;;;1.63;64.71;102575.84;7392387;19;20022;-65
2024/01/07 06:41:38;;;;;;;3.33;1.17;;;;;;;1.52;65.01;102581.16;7392379;19;20018;-65
2024/01/07 06:44:06;;;;;;;4.40;1.27;;;;;;;1.55;64.99;102588.97;7391551;19;20019;-64
2024/01/07 06:46:34;;;;;;;2.80;1.30;;;;;;;1.43;65.26;102584.69;7391795;19;20479;-64
2024/01/07 06:49:02;;;;;;;4.35;1.30;;;;;;;1.46;65.15;102578.59;7391315;19;20046;-64
2024/01/07 06:51:30;;;;;;;2.70;1.30;;;;;;;1.53;65.49;102588.13;7391922;19;20546;-64
2024/01/07 06:53:58;;;;;;;2.70;1.20;;;;;;;1.59;65.36;102584.59;7390869;19;20018;-65
2024/01/07 06:56:26;;;;;;;3.95;1.40;;;;;;;1.48;65.37;102581.19;7389440;19;20369;-65
2024/01/07 06:58:54;;;;;;;4.22;1.30;;;;;;;1.50;65.90;102588.13;7392435;19;20078;-65
2024/01/07 07:01:23;;;;;;;3.13;1.40;;;;;;;1.36;65.76;102585.59;7391195;19;20025;-64
2024/01/07 07:03:51;;;;;;;4.32;1.50;;;;;;;1.45;65.89;102596.00;7390992;19;20366;-64
2024/01/07 07:06:19;;;;;;;4.63;1.10;;;;;;;1.36;65.96;102587.34;7391466;19;20023;-65
2024/01/07 07:08:48;;;;;;;2.47;1.10;;;;;;;1.51;66.24;102602.06;7390445;19;20025;-65
2024/01/07 07:11:16;;;;;;;3.40;1.00;;;;;;;1.55;65.87;102611.59;7390953;19;20039;-65
2024/01/07 07:13:44;;;;;;;2.67;1.17;;;;;;;1.61;65.75;102614.19;7390729;19;20019;-65
2024/01/07 07:16:12;;;;;;;3.53;1.20;;;;;;;1.56;66.09;102615.94;7387037;19;20082;-65
2024/01/07 07:18:40;;;;;;;4.75;1.42;;;;;;;1.52;66.26;102619.44;7395512;19;20036;-65
2024/01/07 07:21:08;;;;;;;4.05;1.30;;;;;;;1.50;66.36;102619.47;7390445;19;20021;-65
2024/01/07 07:23:36;;;;;;;4.63;1.55;;;;;;;1.56;66.55;102629.00;7388482;19;20021;-65
2024/01/07 07:26:04;;;;;;;3.67;1.27;;;;;;;1.54;66.41;102623.78;7390559;19;20014;-65
2024/01/07 07:28:32;;;;;;;3.33;1.30;;;;;;;1.61;66.24;102627.25;7390026;19;20031;-65
2024/01/07 07:31:00;;;;;;;3.90;1.30;;;;;;;1.55;66.58;102633.34;7390916;19;20026;-65
2024/01/07 07:33:29;;;;;;;5.03;1.40;;;;;;;1.62;66.42;102636.78;7390661;19;20010;-64
2024/01/07 07:35:57;;;;;;;4.10;1.40;;;;;;;1.65;66.68;102645.47;7389223;19;20022;-64
2024/01/07 07:38:25;;;;;;;3.08;1.50;;;;;;;1.64;66.35;102650.69;7388912;19;20027;-64
2024/01/07 07:40:53;;;;;;;4.32;1.20;;;;;;;1.69;66.31;102648.94;7389595;19;20022;-64
2024/01/07 07:43:21;;;;;;;3.78;1.00;;;;;;;1.70;66.12;102648.91;7390790;19;20368;-64
2024/01/07 07:45:49;;;;;;;4.55;1.23;;;;;;;1.65;66.14;102649.84;7389842;19;20026;-64
2024/01/07 07:48:18;;;;;;;4.43;1.30;;;;;;;1.53;66.48;102650.78;7391463;19;20081;-65
2024/01/07 07:50:46;;;;;;;3.10;1.30;;;;;;;1.67;66.26;102661.13;7390542;19;20015;-65
2024/01/07 07:53:14;;;;;;;7.72;1.67;;;;;;;1.55;66.44;102663.81;7390133;19;20019;-65
2024/01/07 07:55:42;;;;;;;3.35;1.42;;;;;;;1.64;66.45;102668.97;7390228;19;20014;-65
2024/01/07 07:58:10;;;;;;;4.43;1.20;;;;;;;1.82;65.68;102661.03;7390340;19;20057;-66
2024/01/07 08:00:38;;;;;;;2.25;1.13;;;;;;;1.75;65.00;102667.16;7390924;19;20086;-65
2024/01/07 08:03:06;;;;;;;4.95;1.38;;;;;;;1.86;64.72;102673.19;7389928;19;20023;-65
2024/01/07 08:05:34;;;;;;;2.83;1.35;;;;;;;1.98;64.68;102682.69;7387749;19;20018;-66
2024/01/07 08:08:02;;;;;;;5.85;1.50;;;;;;;1.94;64.49;102688.81;7389474;19;20034;-65
2024/01/07 08:10:32;;;;;;;3.47;1.30;;;;;;;1.99;64.54;102689.69;7390628;19;20014;-65
2024/01/07 08:12:59;;;;;;;3.17;1.20;;;;;;;2.00;64.05;102680.94;7388628;19;20047;-64
2024/01/07 08:15:28;;;;;;;5.55;1.67;;;;;;;2.01;64.15;102692.25;7394647;19;20021;-66
2024/01/07 08:17:56;;;;;;;2.35;1.30;;;;;;;2.10;64.37;102710.47;7398733;19;20033;-65
2024/01/07 08:20:24;;;;;;;4.20;1.20;;;;;;;2.02;64.35;102700.06;7395067;19;20010;-64
2024/01/07 08:22:52;;;;;;;3.15;1.10;;;;;;;1.99;64.66;102694.91;7396664;19;20047;-65
2024/01/07 08:25:20;;;;;;;3.50;1.10;;;;;;;1.98;64.30;102698.38;7392986;19;20114;-66
2024/01/07 08:27:48;;;;;;;3.13;1.40;;;;;;;1.98;64.99;102705.34;7396474;19;20022;-65
2024/01/07 08:30:19;;;;;;;4.22;1.30;;;;;;;1.95;64.64;102701.03;7397050;19;20018;-65
2024/01/07 08:32:47;;;;;;;3.60;1.45;;;;;;;1.95;65.25;102712.34;7396482;19;20019;-65
2024/01/07 08:35:15;;;;;;;3.67;1.10;;;;;;;2.07;64.80;102719.22;7394192;19;20629;-65
2024/01/07 08:37:47;;;;;;;4.60;1.27;;;;;;;2.00;64.77;102720.13;7396469;19;20080;-64
2024/01/07 08:40:15;;;;;;;3.72;1.20;;;;;;;2.06;64.45;102720.13;7396501;19;20018;-66
2024/01/07 08:42:43;;;;;;;3.10;1.25;;;;;;;1.99;64.90;102714.94;7395930;19;20014;-66
2024/01/07 08:45:11;;;;;;;2.80;1.10;;;;;;;2.06;64.78;102711.38;7392601;19;20018;-66
2024/01/07 08:47:39;;;;;;;4.05;1.40;;;;;;;2.02;64.87;102725.34;7397586;19;20035;-66
2024/01/07 08:50:12;;;;;;;3.53;1.30;;;;;;;2.06;64.82;102735.78;7392002;19;20011;-65
2024/01/07 08:52:40;;;;;;;3.65;1.30;;;;;;;2.10;65.01;102742.72;7395994;19;20022;-65
2024/01/07 08:55:09;;;;;;;3.05;1.27;;;;;;;2.11;64.97;102752.28;7393103;19;20018;-65
2024/01/07 08:57:41;;;;;;;4.00;1.27;;;;;;;2.13;64.99;102755.75;7395218;19;20022;-65
2024/01/07 09:00:09;;;;;;;3.28;1.30;;;;;;;2.13;64.85;102760.13;7395160;19;20475;-64
2024/01/07 09:02:38;;;;;;;4.65;1.40;;;;;;;2.05;64.94;102754.94;7395344;19;20032;-65
2024/01/07 09:05:12;;;;;;;4.68;1.42;;;;;;;2.04;64.89;102757.56;7392693;19;20078;-65
2024/01/07 09:07:40;;;;;;;3.00;1.20;;;;;;;2.15;64.81;102759.25;7394842;19;20035;-65
2024/01/07 09:10:10;;;;;;;4.35;1.30;;;;;;;2.16;64.64;102762.72;7393597;19;20329;-65
2024/01/07 09:12:39;;;;;;;3.67;1.23;;;;;;;2.24;64.55;102773.97;7394495;19;20484;-66
2024/01/07 09:15:07;;;;;;;4.60;1.35;;;;;;;2.19;64.69;102774.03;7393078;19;20022;-65
2024/01/07 09:17:37;;;;;;;2.80;1.30;;;;;;;2.31;64.95;102774.81;7395187;19;20500;-66
2024/01/07 09:20:08;;;;;;;3.72;1.42;;;;;;;2.15;65.22;102755.75;7393004;19;20046;-65
2024/01/07 09:22:36;;;;;;;3.65;1.40;;;;;;;2.22;65.52;102777.50;7394548;19;20497;-65
2024/01/07 09:25:05;;;;;;;5.32;1.80;;;;;;;2.14;66.03;102778.41;7391073;19;20018;-65
2024/01/07 09:27:33;;;;;;;4.95;1.55;;;;;;;2.10;66.67;102773.19;7393628;19;20010;-65
2024/01/07 09:30:02;;;;;;;4.47;1.80;;;;;;;2.01;67.47;102781.97;7392113;19;20097;-66
2024/01/07 09:32:30;;;;;;;5.40;2.00;;;;;;;2.00;67.58;102780.22;7393991;19;20011;-65
2024/01/07 09:35:00;;;;;;;5.53;2.30;;;;;;;1.99;67.88;102781.13;7392149;19;20021;-65
2024/01/07 09:37:29;;;;;;;6.38;2.38;;;;;;;1.82;68.91;102775.97;7394075;19;20026;-65
2024/01/07 09:39:58;;;;;;;5.90;2.42;;;;;;;1.76;69.34;102778.63;7394621;19;20031;-65
2024/01/07 09:42:26;;;;;;;6.18;2.20;;;;;;;1.85;69.10;102788.16;7394147;19;20070;-65
2024/01/07 09:44:54;;;;;;;5.85;2.60;;;;;;;1.85;69.52;102775.94;7392280;19;20050;-65
2024/01/07 09:47:23;;;;;;;8.27;2.42;;;;;;;1.84;69.66;102792.50;7394413;19;20022;-65
2024/01/07 09:49:51;;;;;;;7.82;2.60;;;;;;;1.90;69.54;102784.63;7392130;19;20019;-65
2024/01/07 09:52:20;;;;;;;7.15;2.83;;;;;;;1.91;69.88;102780.28;7393917;19;20098;-65
2024/01/07 09:54:59;;;;;;;8.23;2.83;;;;;;;2.03;69.54;102798.50;7391580;19;20483;-65
2024/01/07 09:57:28;;;;;;;5.88;2.60;;;;;;;1.95;69.96;102788.09;7392686;19;20377;-65
2024/01/07 09:59:56;;;;;;;6.68;2.78;;;;;;;1.93;70.04;102795.06;7392916;19;20014;-65
2024/01/07 10:02:24;;;;;;;8.52;3.20;;;;;;;1.99;69.99;102793.31;7392984;19;20047;-65
2024/01/07 10:04:52;;;;;;;6.63;2.72;;;;;;;2.09;70.28;102798.47;7391317;19;20358;-65
2024/01/07 10:07:20;;;;;;;7.72;3.83;;;;;;;2.04;70.04;102802.00;7390768;19;20040;-66
2024/01/07 10:09:48;;;;;;;8.35;3.50;;;;;;;2.02;70.07;102801.97;7392185;19;20636;-66
2024/01/07 10:12:16;;;;;;;7.45;3.25;;;;;;;2.17;70.08;102796.66;7393248;19;20015;-65
2024/01/07 10:14:45;;;;;;;8.57;3.40;;;;;;;2.30;69.71;102804.47;7389775;19;20018;-65
2024/01/07 10:17:17;;;;;;;7.80;3.33;;;;;;;2.34;69.22;102803.56;7393262;19;20498;-65
2024/01/07 10:19:48;;;;;;;10.43;3.42;;;;;;;2.36;68.90;102797.41;7392636;19;20021;-64
2024/01/07 10:22:16;;;;;;;6.57;2.85;;;;;;;2.22;69.64;102808.88;7392332;19;20051;-64
2024/01/07 10:24:44;;;;;;;8.98;3.38;;;;;;;2.22;69.92;102812.34;7391013;19;20022;-64
2024/01/07 10:27:13;;;;;;;7.85;3.42;;;;;;;2.20;69.98;102809.72;7392637;19;20531;-65
2024/01/07 10:29:41;;;;;;;8.18;3.58;;;;;;;2.29;69.54;102821.91;7392325;19;20014;-64
2024/01/07 10:32:09;;;;;;;6.88;2.92;;;;;;;2.22;69.87;102814.97;7391862;19;20019;-64
2024/01/07 10:34:37;;;;;;;6.10;3.03;;;;;;;2.12;69.61;102819.34;7390469;19;20018;-64
2024/01/07 10:37:05;;;;;;;6.78;2.95;;;;;;;2.16;69.67;102817.59;7391301;19;20078;-64
2024/01/07 10:39:33;;;;;;;9.68;3.00;;;;;;;2.09;69.81;102823.72;7392009;19;20022;-64
2024/01/07 10:42:02;;;;;;;9.27;3.38;;;;;;;2.06;69.51;102816.78;7392343;19;20022;-65
2024/01/07 10:44:32;;;;;;;7.68;2.75;;;;;;;2.16;69.08;102810.63;7388884;19;20026;-63
2024/01/07 10:47:06;;;;;;;6.63;3.20;;;;;;;2.04;68.96;102820.28;7392625;19;20358;-63
2024/01/07 10:49:36;;;;;;;8.10;2.88;;;;;;;2.04;69.49;102815.91;7390978;19;20022;-63
2024/01/07 10:52:06;;;;;;;5.60;2.60;;;;;;;2.04;68.88;102813.31;7391238;19;20583;-64
2024/01/07 10:54:36;;;;;;;7.13;2.88;;;;;;;2.14;69.25;102828.06;7390597;19;20029;-64
2024/01/07 10:57:35;;;;;;;7.72;3.00;;;;;;;2.16;68.91;102830.66;7395434;19;20018;-65
2024/01/07 11:00:07;;;;;;;7.22;2.78;;;;;;;2.17;69.13;102827.16;7390528;19;20018;-64
2024/01/07 11:02:50;;;;;;;6.93;2.53;;;;;;;2.16;69.09;102826.31;7391016;19;20026;-63
2024/01/07 11:05:26;;;;;;;7.57;2.90;;;;;;;2.14;69.18;102825.47;7389437;19;20039;-64
2024/01/07 11:08:11;;;;;;;9.50;2.88;;;;;;;2.20;68.79;102825.41;7391174;19;20349;-65
2024/01/07 11:10:43;;;;;;;;;;;;;;;2.04;68.61;102830.72;7391375;19;20015;-64
2024/01/07 11:13:35;;;;;;;9.25;3.22;;;;;;;2.16;68.39;102828.91;7394606;19;19922;-64
2024/01/07 11:16:04;;;;;;;7.15;2.78;;;;;;;2.13;68.40;102830.66;7390617;19;20039;-64
2024/01/07 11:18:33;;;;;;;6.05;2.47;;;;;;;2.11;68.67;102824.59;7391859;19;20014;-64
2024/01/07 11:21:03;;;;;;;6.57;2.42;;;;;;;2.14;68.66;102819.38;7390862;19;20035;-64
2024/01/07 11:23:32;;;;;;;5.95;2.58;;;;;;;2.17;68.73;102821.94;7391009;19;20041;-64
2024/01/07 11:26:01;;;;;;;8.45;3.08;;;;;;;2.09;68.71;102811.53;7390540;19;20424;-65
2024/01/07 11:28:48;;;;;;;8.35;3.08;;;;;;;2.31;68.19;102821.88;7393965;19;20050;-64
2024/01/07 11:31:17;;;;;;;6.18;2.50;;;;;;;2.22;68.59;102835.00;7391896;19;20371;-64
2024/01/07 11:33:48;;;;;;;5.72;2.42;;;;;;;2.19;68.15;102839.34;7389517;19;20063;-64
2024/01/07 11:36:17;;;;;;;5.85;2.72;;;;;;;2.25;68.07;102827.13;7388621;19;20022;-64
2024/01/07 11:38:49;;;;;;;6.65;2.35;;;;;;;2.34;67.70;102838.41;7390491;19;20015;-63
2024/01/07 11:41:23;;;;;;;5.85;2.58;;;;;;;2.27;68.09;102828.00;7390987;19;20027;-64
2024/01/07 11:43:54;;;;;;;10.07;2.60;;;;;;;2.33;67.79;102838.44;7389291;19;20501;-63